Time;durP1;ratioP1;P1;durP2;ratioP2;P2;SDS_P1;SDS_P2;PMS_P1;PMS_P2;Temp;Humidity;BMP_temperature;BMP_pressure;BME280_temperature;BME280_humidity;BME280_pressure;Samples;Min_cycle;Max_cycle;Signal;HPM_P1;HPM_P2
2022/03/03 00:02:06;;;;;;;21.87;9.70;;;-1.70;97.30;;;;;;5053292;28;20172;-83
2022/03/03 00:04:32;;;;;;;27.67;10.67;;;-1.70;97.30;;;;;;5035465;28;20171;-83
2022/03/03 00:06:57;;;;;;;18.67;10.00;;;-1.70;97.30;;;;;;5034445;28;20794;-84
2022/03/03 00:09:23;;;;;;;22.30;10.77;;;-1.70;97.30;;;;;;5034972;28;20226;-84
2022/03/03 00:11:49;;;;;;;29.83;10.60;;;-1.70;97.30;;;;;;5035210;28;20179;-85
2022/03/03 00:14:15;;;;;;;27.37;10.73;;;-1.70;97.30;;;;;;5035307;28;20184;-86
2022/03/03 00:16:40;;;;;;;29.63;11.37;;;-1.70;97.30;;;;;;5040965;28;20455;-85
2022/03/03 00:19:06;;;;;;;24.27;10.63;;;-1.80;97.30;;;;;;5070622;28;20478;-85
2022/03/03 00:21:31;;;;;;;31.83;11.60;;;-1.80;97.30;;;;;;5031660;28;20255;-86
2022/03/03 00:23:57;;;;;;;35.30;12.17;;;-1.80;97.30;;;;;;5025067;28;20278;-84
2022/03/03 00:26:22;;;;;;;25.40;12.03;;;-1.80;97.30;;;;;;5055186;28;20187;-85
2022/03/03 00:28:48;;;;;;;20.40;9.67;;;-1.80;97.30;;;;;;5054654;28;20207;-84
2022/03/03 00:31:14;;;;;;;23.63;11.10;;;-1.80;97.30;;;;;;5054846;28;20266;-85
2022/03/03 00:33:39;;;;;;;27.17;12.07;;;-1.80;97.30;;;;;;5054629;28;20179;-86
2022/03/03 00:36:05;;;;;;;24.50;10.37;;;-1.80;97.30;;;;;;5054845;28;20182;-84
2022/03/03 00:38:30;;;;;;;26.33;10.83;;;-1.80;97.30;;;;;;5055101;28;20195;-84
2022/03/03 00:40:56;;;;;;;22.30;9.97;;;-1.80;97.30;;;;;;5054534;28;20189;-85
2022/03/03 00:43:21;;;;;;;24.57;10.07;;;-1.80;97.30;;;;;;5054487;28;20179;-85
2022/03/03 00:45:47;;;;;;;27.80;11.87;;;-1.90;97.30;;;;;;5049749;28;20207;-86
2022/03/03 00:48:12;;;;;;;27.27;11.60;;;-1.90;97.30;;;;;;5044729;28;20289;-86
2022/03/03 00:50:38;;;;;;;26.20;10.63;;;-2.00;97.30;;;;;;5043374;28;20172;-84
2022/03/03 00:53:04;;;;;;;25.33;10.17;;;-2.00;97.30;;;;;;5034496;28;20172;-83
2022/03/03 00:55:30;;;;;;;30.03;12.17;;;-2.00;97.30;;;;;;5049762;28;20185;-85
2022/03/03 00:57:55;;;;;;;32.30;11.33;;;-2.00;97.30;;;;;;5054308;28;20436;-84
2022/03/03 01:00:21;;;;;;;25.40;11.13;;;-2.00;97.30;;;;;;5054170;28;20210;-86
2022/03/03 01:02:48;;;;;;;26.13;11.10;;;-2.10;97.30;;;;;;5054530;28;20256;-86
2022/03/03 01:05:13;;;;;;;28.67;11.80;;;-2.10;97.30;;;;;;5054615;28;20195;-86
2022/03/03 01:07:39;;;;;;;30.57;11.30;;;-2.10;97.30;;;;;;5056863;28;20495;-85
2022/03/03 01:10:06;;;;;;;31.83;11.47;;;-2.20;97.30;;;;;;5058152;28;20178;-86
2022/03/03 01:12:31;;;;;;;23.23;11.20;;;-2.20;97.30;;;;;;5057745;28;20171;-86
2022/03/03 01:14:57;;;;;;;31.60;12.00;;;-2.20;97.30;;;;;;5075508;28;20413;-86
2022/03/03 01:17:23;;;;;;;31.27;12.73;;;-2.20;97.30;;;;;;5057857;28;20661;-85
2022/03/03 01:19:49;;;;;;;27.73;11.13;;;-2.20;97.30;;;;;;5052675;28;20215;-84
2022/03/03 01:22:16;;;;;;;34.37;13.50;;;-2.20;97.30;;;;;;5037928;28;20190;-85
2022/03/03 01:24:42;;;;;;;33.73;11.53;;;-2.20;97.30;;;;;;5055300;28;20446;-87
2022/03/03 01:27:07;;;;;;;39.17;12.50;;;-2.20;97.30;;;;;;5038199;28;20442;-86
2022/03/03 01:29:33;;;;;;;37.50;12.20;;;-2.20;97.30;;;;;;5038156;28;20822;-86
2022/03/03 01:31:59;;;;;;;26.40;12.07;;;-2.30;97.30;;;;;;5038112;28;20187;-83
2022/03/03 01:34:24;;;;;;;26.63;11.87;;;-2.30;97.30;;;;;;5041212;28;20229;-85
2022/03/03 01:36:50;;;;;;;26.30;10.73;;;-2.30;97.30;;;;;;5055552;28;20172;-85
2022/03/03 01:39:15;;;;;;;32.40;12.40;;;-2.30;97.30;;;;;;5037711;28;20184;-84
2022/03/03 01:41:41;;;;;;;27.40;11.83;;;-2.40;97.30;;;;;;5037471;28;20237;-86
2022/03/03 01:44:08;;;;;;;30.80;13.60;;;-2.40;97.30;;;;;;5055064;28;20187;-85
2022/03/03 01:46:34;;;;;;;23.13;11.50;;;-2.40;97.30;;;;;;5037592;28;20467;-85
2022/03/03 01:48:59;;;;;;;31.37;12.30;;;-2.40;97.30;;;;;;5037235;28;20568;-85
2022/03/03 01:51:25;;;;;;;29.30;11.30;;;-2.40;97.30;;;;;;5037119;28;20176;-85
2022/03/03 01:53:51;;;;;;;23.53;10.00;;;-2.40;97.30;;;;;;5040925;28;20656;-86
2022/03/03 01:56:17;;;;;;;25.23;10.47;;;-2.40;97.30;;;;;;5057006;28;20175;-85
2022/03/03 01:58:44;;;;;;;22.80;10.47;;;-2.40;97.30;;;;;;5057013;28;20199;-85
2022/03/03 02:01:10;;;;;;;20.70;9.67;;;-2.40;97.30;;;;;;5056822;28;20504;-85
2022/03/03 02:03:36;;;;;;;26.93;11.23;;;-2.40;97.30;;;;;;5056942;28;20456;-85
2022/03/03 02:06:02;;;;;;;28.37;10.57;;;-2.40;97.30;;;;;;5057295;28;20413;-86
2022/03/03 02:08:28;;;;;;;27.53;10.80;;;-2.40;97.30;;;;;;5056961;28;20481;-85
2022/03/03 02:10:54;;;;;;;19.80;10.20;;;-2.50;97.30;;;;;;5056839;28;20675;-85
2022/03/03 02:13:20;;;;;;;27.07;9.87;;;-2.50;97.30;;;;;;5056708;28;20422;-85
2022/03/03 02:15:53;;;;;;;27.73;10.30;;;-2.50;97.30;;;;;;5057156;28;20974;-84
2022/03/03 02:18:19;;;;;;;23.63;10.60;;;-2.60;97.30;;;;;;5055899;28;20262;-85
2022/03/03 02:20:45;;;;;;;26.47;10.47;;;-2.60;97.30;;;;;;5056504;28;20500;-85
2022/03/03 02:23:11;;;;;;;31.17;12.07;;;-2.60;97.30;;;;;;5056784;28;20179;-85
2022/03/03 02:25:37;;;;;;;30.80;13.13;;;-2.60;97.30;;;;;;5056959;28;20423;-84
2022/03/03 02:28:03;;;;;;;24.13;10.67;;;-2.70;97.30;;;;;;5056465;28;20203;-84
2022/03/03 02:30:28;;;;;;;24.43;11.10;;;-2.70;97.30;;;;;;5056567;28;20262;-84
2022/03/03 02:32:54;;;;;;;24.10;11.03;;;-2.70;97.30;;;;;;5056514;28;20410;-85
2022/03/03 02:35:20;;;;;;;30.77;12.20;;;-2.80;97.30;;;;;;5056611;28;20175;-85
2022/03/03 02:37:46;;;;;;;27.43;11.73;;;-2.80;97.30;;;;;;5074208;28;20199;-85
2022/03/03 02:40:19;;;;;;;23.73;10.93;;;-2.80;97.30;;;;;;5074232;28;20783;-83
2022/03/03 02:42:54;;;;;;;37.40;14.20;;;-2.80;97.30;;;;;;5074293;28;20937;-85
2022/03/03 02:45:21;;;;;;;26.77;11.70;;;-2.80;97.30;;;;;;5078693;28;20467;-85
2022/03/03 02:47:48;;;;;;;32.07;12.20;;;-2.80;97.30;;;;;;5057859;28;20461;-84
2022/03/03 02:50:16;;;;;;;26.93;11.40;;;-2.80;97.30;;;;;;5074521;28;20413;-84
2022/03/03 02:52:41;;;;;;;26.70;10.50;;;-2.90;97.30;;;;;;5056124;28;20418;-84
2022/03/03 02:55:08;;;;;;;23.20;10.80;;;-2.90;97.30;;;;;;5056343;28;20428;-85
2022/03/03 03:00:17;;;;;;;30.00;11.97;;;-2.90;97.30;;;;;;5074710;28;20464;-85
2022/03/03 03:02:43;;;;;;;18.43;9.83;;;-2.90;97.30;;;;;;5073994;28;20903;-85
2022/03/03 03:05:10;;;;;;;27.33;10.50;;;-2.90;97.30;;;;;;5056102;28;20676;-85
2022/03/03 03:07:35;;;;;;;29.17;10.97;;;-3.00;97.30;;;;;;5055629;28;20473;-85
2022/03/03 03:10:02;;;;;;;27.43;10.87;;;-3.00;97.30;;;;;;5056361;28;20924;-84
2022/03/03 03:12:28;;;;;;;26.70;12.07;;;-3.00;97.30;;;;;;5074193;28;20590;-84
2022/03/03 03:14:54;;;;;;;26.57;9.80;;;-3.00;97.30;;;;;;5056714;28;20463;-85
2022/03/03 03:17:19;;;;;;;21.77;10.57;;;-3.00;97.30;;;;;;5055838;28;20581;-85
2022/03/03 03:19:45;;;;;;;29.93;10.57;;;-3.00;97.30;;;;;;5056241;28;20228;-85
2022/03/03 03:22:10;;;;;;;25.03;11.17;;;-3.10;97.30;;;;;;5056157;28;20189;-85
2022/03/03 03:24:36;;;;;;;28.10;10.93;;;-3.10;97.30;;;;;;5056909;28;20178;-83
2022/03/03 03:27:01;;;;;;;24.10;11.03;;;-3.20;97.30;;;;;;5057308;28;20252;-84
2022/03/03 03:29:27;;;;;;;28.33;11.13;;;-3.20;97.30;;;;;;5056898;28;20202;-85
2022/03/03 03:31:52;;;;;;;22.00;11.30;;;-3.20;97.30;;;;;;5057547;28;20194;-85
2022/03/03 03:34:18;;;;;;;20.97;10.60;;;-3.20;97.30;;;;;;5056765;28;20498;-85
2022/03/03 03:36:43;;;;;;;21.93;10.00;;;-3.20;97.30;;;;;;5056492;28;20212;-84
2022/03/03 03:39:09;;;;;;;24.77;11.73;;;-3.20;97.30;;;;;;5056983;28;20283;-84
2022/03/03 03:41:34;;;;;;;26.93;11.73;;;-3.30;97.30;;;;;;5075485;28;20171;-84
2022/03/03 03:44:00;;;;;;;24.07;12.10;;;-3.20;97.30;;;;;;5075146;28;20186;-82
2022/03/03 03:46:25;;;;;;;31.60;11.90;;;-3.30;97.30;;;;;;5071220;28;20668;-85
2022/03/03 03:48:51;;;;;;;28.73;12.37;;;-3.30;97.30;;;;;;5055683;28;20301;-85
2022/03/03 03:51:16;;;;;;;32.43;10.87;;;-3.30;97.30;;;;;;5055596;28;20167;-84
2022/03/03 03:53:42;;;;;;;27.20;11.50;;;-3.30;97.30;;;;;;5056645;28;20650;-84
2022/03/03 03:56:08;;;;;;;28.03;12.20;;;-3.30;97.30;;;;;;5058332;28;20179;-83
2022/03/03 03:58:33;;;;;;;25.43;11.17;;;-3.30;97.30;;;;;;5058718;28;20206;-85
2022/03/03 04:00:59;;;;;;;26.80;11.23;;;-3.30;97.30;;;;;;5082598;28;20417;-84
2022/03/03 04:03:25;;;;;;;24.33;11.50;;;-3.40;97.30;;;;;;5062314;28;20551;-84
2022/03/03 04:05:51;;;;;;;28.57;12.17;;;-3.40;97.30;;;;;;5056588;28;20171;-83
2022/03/03 04:08:18;;;;;;;22.77;10.00;;;-3.40;97.30;;;;;;5055403;28;20533;-83
2022/03/03 04:10:44;;;;;;;21.20;11.07;;;-3.40;97.30;;;;;;5055195;28;20417;-85
2022/03/03 04:13:10;;;;;;;35.33;12.20;;;-3.50;97.30;;;;;;5055269;28;20406;-84
2022/03/03 04:15:36;;;;;;;25.70;10.47;;;-3.50;97.30;;;;;;5055367;28;20927;-84
2022/03/03 04:18:01;;;;;;;21.63;10.30;;;-3.50;97.30;;;;;;5047674;28;20199;-84
2022/03/03 04:20:27;;;;;;;25.53;11.77;;;-3.50;97.30;;;;;;5043275;28;20245;-85
2022/03/03 04:22:53;;;;;;;37.27;12.27;;;-3.50;97.30;;;;;;5049138;28;20214;-84
2022/03/03 04:25:19;;;;;;;20.33;11.20;;;-3.50;97.30;;;;;;5055690;28;20924;-84
2022/03/03 04:27:44;;;;;;;21.73;11.17;;;-3.50;97.30;;;;;;5036016;28;20690;-83
2022/03/03 04:30:11;;;;;;;21.87;11.10;;;-3.50;97.30;;;;;;5035656;28;20187;-82
2022/03/03 04:32:37;;;;;;;25.17;10.40;;;-3.50;97.30;;;;;;5052837;28;20168;-84
2022/03/03 04:35:03;;;;;;;32.37;11.27;;;-3.50;97.30;;;;;;5043910;28;20417;-85
2022/03/03 04:37:29;;;;;;;25.67;10.47;;;-3.50;97.30;;;;;;5055283;28;20422;-85
2022/03/03 04:39:55;;;;;;;29.53;11.43;;;-3.50;97.30;;;;;;5055815;28;20429;-84
2022/03/03 04:42:20;;;;;;;27.40;12.00;;;-3.50;97.30;;;;;;5076064;28;20178;-82
2022/03/03 04:44:46;;;;;;;30.70;11.20;;;-3.60;97.30;;;;;;5059478;28;20175;-85
2022/03/03 04:47:11;;;;;;;35.03;13.73;;;-3.60;97.30;;;;;;5059001;28;20195;-84
2022/03/03 04:49:37;;;;;;;27.37;13.07;;;-3.60;97.30;;;;;;5059960;28;20653;-84
2022/03/03 04:52:03;;;;;;;27.87;13.13;;;-3.60;97.30;;;;;;5052146;28;20199;-84
2022/03/03 04:54:28;;;;;;;30.07;12.70;;;-3.60;97.30;;;;;;5058598;28;20211;-84
2022/03/03 04:56:55;;;;;;;25.17;12.77;;;-3.60;97.30;;;;;;5058131;28;20441;-82
2022/03/03 04:59:23;;;;;;;30.17;13.27;;;-3.60;97.30;;;;;;5040535;28;20202;-84
2022/03/03 05:01:49;;;;;;;26.27;11.77;;;-3.60;97.30;;;;;;5040419;28;20453;-84
2022/03/03 05:04:15;;;;;;;22.43;10.73;;;-3.60;97.30;;;;;;5040907;28;20406;-84
2022/03/03 05:06:40;;;;;;;33.10;13.00;;;-3.70;97.30;;;;;;5041212;28;20933;-82
2022/03/03 05:09:06;;;;;;;28.83;12.40;;;-3.70;97.30;;;;;;5040763;28;20216;-83
2022/03/03 05:11:31;;;;;;;30.73;12.43;;;-3.80;97.30;;;;;;5041828;28;20192;-84
2022/03/03 05:13:57;;;;;;;29.53;12.20;;;-3.80;97.30;;;;;;5041014;28;20199;-84
2022/03/03 05:16:23;;;;;;;29.60;11.33;;;-3.80;97.30;;;;;;5041166;28;20187;-85
2022/03/03 05:18:48;;;;;;;22.73;11.77;;;-3.80;97.30;;;;;;5040500;28;20861;-83
2022/03/03 05:21:14;;;;;;;27.03;12.53;;;-3.80;97.30;;;;;;5041273;28;20221;-84
2022/03/03 05:23:39;;;;;;;29.87;13.33;;;-3.90;97.30;;;;;;5040210;28;20175;-84
2022/03/03 05:26:05;;;;;;;30.00;13.03;;;-3.90;97.30;;;;;;5043463;28;20199;-84
2022/03/03 05:28:31;;;;;;;28.67;12.43;;;-3.90;97.30;;;;;;5041156;28;20204;-82
2022/03/03 05:30:56;;;;;;;34.77;12.60;;;-3.90;97.30;;;;;;5042197;28;20187;-84
2022/03/03 05:33:22;;;;;;;35.20;12.57;;;-3.90;97.30;;;;;;5041429;28;20176;-84
2022/03/03 05:35:48;;;;;;;26.03;12.60;;;-3.90;97.30;;;;;;5041286;28;20183;-84
2022/03/03 05:38:14;;;;;;;32.70;13.53;;;-3.90;97.30;;;;;;5040925;28;20196;-83
2022/03/03 05:40:39;;;;;;;29.83;12.43;;;-3.90;97.30;;;;;;5040673;28;20414;-83
2022/03/03 05:43:09;;;;;;;35.80;12.67;;;-3.90;97.30;;;;;;5040701;28;20184;-83
2022/03/03 05:45:35;;;;;;;26.13;12.77;;;-3.90;97.30;;;;;;5040845;28;20176;-82
2022/03/03 05:48:02;;;;;;;26.23;11.83;;;-3.90;97.30;;;;;;5040962;28;20519;-84
2022/03/03 05:50:27;;;;;;;23.03;12.03;;;-3.90;97.30;;;;;;5040318;28;20417;-82
2022/03/03 05:52:54;;;;;;;25.40;13.10;;;-3.90;97.30;;;;;;5039025;28;20419;-83
2022/03/03 05:55:20;;;;;;;28.00;12.27;;;-3.90;97.30;;;;;;5040319;28;20176;-84
2022/03/03 05:57:49;;;;;;;34.70;13.10;;;-4.00;97.30;;;;;;5040151;28;20465;-83
2022/03/03 06:00:20;;;;;;;30.93;12.13;;;-4.00;97.30;;;;;;5043513;28;20172;-83
2022/03/03 06:02:54;;;;;;;32.00;13.17;;;-3.90;97.30;;;;;;5040481;28;20421;-83
2022/03/03 06:05:27;;;;;;;25.37;10.73;;;-4.00;97.30;;;;;;5040538;28;20402;-83
2022/03/03 06:08:01;;;;;;;27.17;12.80;;;-4.00;97.30;;;;;;5040327;28;20474;-82
2022/03/03 06:10:32;;;;;;;31.57;13.30;;;-4.00;97.30;;;;;;5041004;28;20412;-83
2022/03/03 06:13:17;;;;;;;27.67;14.37;;;-4.00;97.30;;;;;;5058258;28;20409;-84
2022/03/03 06:15:45;;;;;;;25.13;11.83;;;-4.00;97.30;;;;;;5058450;28;20771;-83
2022/03/03 06:18:12;;;;;;;34.13;12.47;;;-4.00;97.30;;;;;;5040275;28;20453;-84
2022/03/03 06:20:39;;;;;;;35.30;14.03;;;-3.90;97.30;;;;;;5041224;28;20408;-83
2022/03/03 06:23:05;;;;;;;35.27;13.63;;;-3.90;97.30;;;;;;5041196;28;20410;-83
2022/03/03 06:25:30;;;;;;;28.57;13.13;;;-3.90;97.30;;;;;;5043131;28;20458;-83
2022/03/03 06:27:56;;;;;;;30.60;12.60;;;-3.90;97.30;;;;;;5060026;28;20203;-82
2022/03/03 06:30:22;;;;;;;35.40;14.00;;;-3.90;97.30;;;;;;5060085;28;20452;-84
2022/03/03 06:32:47;;;;;;;31.33;13.93;;;-3.80;97.30;;;;;;5059831;28;20167;-81
2022/03/03 06:35:13;;;;;;;26.70;13.30;;;-3.80;97.30;;;;;;5049902;28;20226;-83
2022/03/03 06:37:38;;;;;;;42.43;13.67;;;-3.70;97.30;;;;;;5040440;28;20184;-82
2022/03/03 06:40:04;;;;;;;32.43;13.57;;;-3.60;97.30;;;;;;5058877;28;20665;-83
2022/03/03 06:42:30;;;;;;;27.23;12.40;;;-3.50;97.30;;;;;;5040176;28;20183;-83
2022/03/03 06:44:55;;;;;;;31.97;12.33;;;-3.40;97.30;;;;;;5039691;28;20411;-83
2022/03/03 06:47:22;;;;;;;32.90;13.53;;;-3.40;97.30;;;;;;5039139;28;20223;-83
2022/03/03 06:49:49;;;;;;;38.33;14.07;;;-3.30;97.30;;;;;;5039813;28;20178;-83
2022/03/03 06:52:16;;;;;;;53.73;18.30;;;-3.20;97.30;;;;;;5039637;28;20417;-83
2022/03/03 06:54:45;;;;;;;42.33;17.00;;;-3.10;97.30;;;;;;5057058;28;20409;-84
2022/03/03 06:57:11;;;;;;;46.60;17.20;;;-3.00;97.30;;;;;;5039026;28;20449;-82
2022/03/03 06:59:38;;;;;;;49.33;18.53;;;-2.90;97.30;;;;;;5056454;28;20406;-83
2022/03/03 07:02:04;;;;;;;58.07;20.37;;;-2.80;97.30;;;;;;5038112;28;20180;-83
2022/03/03 07:04:32;;;;;;;62.70;22.83;;;-2.70;97.30;;;;;;5038608;28;20905;-83
2022/03/03 07:06:58;;;;;;;74.90;23.23;;;-2.50;97.30;;;;;;5056073;28;20168;-83
2022/03/03 07:09:24;;;;;;;55.23;19.50;;;-2.40;97.30;;;;;;5038432;28;21145;-84
2022/03/03 07:11:50;;;;;;;46.13;17.03;;;-2.30;97.30;;;;;;5038114;28;20411;-83
2022/03/03 07:14:16;;;;;;;41.23;17.57;;;-2.20;97.30;;;;;;5038627;28;20194;-83
2022/03/03 07:16:50;;;;;;;54.80;17.37;;;-2.10;97.30;;;;;;5038442;28;20457;-82
2022/03/03 07:19:33;;;;;;;51.30;18.87;;;-1.90;97.30;;;;;;5055425;28;20430;-83
2022/03/03 07:22:07;;;;;;;42.50;16.80;;;-1.80;97.30;;;;;;5037773;28;20429;-81
2022/03/03 07:24:37;;;;;;;40.13;17.97;;;-1.70;97.30;;;;;;5038278;28;20493;-83
2022/03/03 07:27:04;;;;;;;52.80;18.27;;;-1.60;97.30;;;;;;5055677;28;20438;-82
2022/03/03 07:29:32;;;;;;;42.97;17.53;;;-1.50;97.30;;;;;;5038622;28;20453;-84
2022/03/03 07:31:59;;;;;;;40.87;14.80;;;-1.40;97.30;;;;;;5037229;28;20449;-83
2022/03/03 07:34:31;;;;;;;41.20;16.87;;;-1.30;97.30;;;;;;5037683;28;20425;-84
2022/03/03 07:37:04;;;;;;;37.57;15.60;;;-1.20;97.30;;;;;;5036980;28;20414;-83
2022/03/03 07:39:38;;;;;;;45.10;16.90;;;-1.00;97.30;;;;;;5038117;28;20414;-83
2022/03/03 07:42:03;;;;;;;41.40;15.83;;;-0.90;97.30;;;;;;5036647;28;20895;-83
2022/03/03 07:44:29;;;;;;;38.07;15.60;;;-0.80;97.30;;;;;;5036828;28;20453;-83
2022/03/03 07:46:55;;;;;;;51.97;15.53;;;-0.80;97.30;;;;;;5037094;28;20190;-83
2022/03/03 07:49:21;;;;;;;57.57;18.00;;;-0.70;97.30;;;;;;5036399;28;20233;-83
2022/03/03 07:51:48;;;;;;;34.97;17.83;;;-0.60;97.30;;;;;;5054507;28;20402;-83
2022/03/03 07:54:14;;;;;;;44.37;16.90;;;-0.50;97.30;;;;;;5036298;28;20406;-84
2022/03/03 07:56:43;;;;;;;36.37;16.07;;;-0.40;97.30;;;;;;5039468;28;20422;-82
2022/03/03 07:59:14;;;;;;;45.60;16.90;;;-0.30;97.30;;;;;;5036597;28;20184;-83
2022/03/03 08:01:43;;;;;;;45.67;16.60;;;-0.20;97.30;;;;;;5037050;28;20410;-84
2022/03/03 08:04:14;;;;;;;40.03;17.73;;;-0.10;97.30;;;;;;5037056;28;20414;-83
2022/03/03 08:06:40;;;;;;;41.27;16.23;;;0.00;97.30;;;;;;5037215;28;20492;-84
2022/03/03 08:09:06;;;;;;;39.27;16.07;;;0.10;97.30;;;;;;5036493;28;20564;-84
2022/03/03 08:11:35;;;;;;;49.97;18.83;;;0.20;97.30;;;;;;5036308;28;20293;-83
2022/03/03 08:14:01;;;;;;;52.77;18.97;;;0.30;97.30;;;;;;5036708;28;20421;-84
2022/03/03 08:16:27;;;;;;;42.50;16.20;;;0.40;97.30;;;;;;5036674;28;20413;-84
2022/03/03 08:18:56;;;;;;;35.57;16.30;;;0.50;97.30;;;;;;5039307;28;20434;-84
2022/03/03 08:21:23;;;;;;;46.00;17.90;;;0.60;97.30;;;;;;5054151;28;20563;-84
2022/03/03 08:23:50;;;;;;;39.23;17.20;;;0.70;97.30;;;;;;5063216;28;20415;-83
2022/03/03 08:26:17;;;;;;;42.40;15.80;;;0.80;97.30;;;;;;5058823;28;20505;-84
2022/03/03 08:28:43;;;;;;;40.17;17.77;;;0.90;97.30;;;;;;5048452;28;20465;-83
2022/03/03 08:31:08;;;;;;;33.53;14.30;;;1.10;97.30;;;;;;5042247;28;20425;-84
2022/03/03 08:34:02;;;;;;;40.47;16.33;;;1.20;97.30;;;;;;5054820;28;20197;-84
2022/03/03 08:36:44;;;;;;;47.23;18.03;;;1.40;97.30;;;;;;5019147;28;20170;-84
2022/03/03 08:39:11;;;;;;;38.03;16.20;;;1.40;97.30;;;;;;5019072;28;20415;-85
2022/03/03 08:41:38;;;;;;;34.53;15.33;;;1.60;97.30;;;;;;5017127;28;20473;-85
2022/03/03 08:44:07;;;;;;;40.27;16.23;;;1.70;97.30;;;;;;5045111;28;20480;-86
2022/03/03 08:46:35;;;;;;;36.67;15.30;;;1.80;97.30;;;;;;5053825;28;20421;-85
2022/03/03 08:49:03;;;;;;;43.23;15.57;;;1.90;97.30;;;;;;5020412;28;20470;-85
2022/03/03 08:51:29;;;;;;;34.77;14.60;;;2.00;97.30;;;;;;5037439;28;20497;-85
2022/03/03 08:53:55;;;;;;;35.90;15.40;;;2.20;97.30;;;;;;5052214;28;20505;-84
2022/03/03 08:56:22;;;;;;;34.37;14.73;;;2.30;97.30;;;;;;5037751;28;20259;-85
2022/03/03 08:58:48;;;;;;;37.70;15.10;;;2.50;97.30;;;;;;5037464;28;20520;-85
2022/03/03 09:01:14;;;;;;;36.00;14.73;;;2.60;97.30;;;;;;5037827;28;20441;-84
2022/03/03 09:03:40;;;;;;;34.57;14.60;;;2.70;97.10;;;;;;5037556;28;20414;-83
2022/03/03 09:06:06;;;;;;;37.53;15.20;;;2.80;96.90;;;;;;5057595;28;20561;-85
2022/03/03 09:08:32;;;;;;;36.50;14.77;;;3.00;97.00;;;;;;5057273;28;20712;-85
2022/03/03 09:10:57;;;;;;;32.00;14.40;;;3.10;96.40;;;;;;5057606;28;20440;-85
2022/03/03 09:13:23;;;;;;;31.93;14.67;;;3.20;96.00;;;;;;5059695;28;20197;-85
2022/03/03 09:15:48;;;;;;;32.13;14.83;;;3.30;95.40;;;;;;5078324;28;20187;-85
2022/03/03 09:18:14;;;;;;;33.90;14.43;;;3.40;95.60;;;;;;5057581;28;20588;-86
2022/03/03 09:20:40;;;;;;;32.50;15.87;;;3.50;95.50;;;;;;5057167;28;20178;-86
2022/03/03 09:23:05;;;;;;;34.20;15.80;;;3.60;95.60;;;;;;5075488;28;20171;-85
2022/03/03 09:25:31;;;;;;;25.90;12.40;;;3.70;95.50;;;;;;5075254;28;20654;-85
2022/03/03 09:27:57;;;;;;;30.17;13.17;;;3.80;95.00;;;;;;5057142;28;20213;-85
2022/03/03 09:30:23;;;;;;;31.93;14.07;;;3.90;93.60;;;;;;5049909;28;20418;-85
2022/03/03 09:32:49;;;;;;;32.77;14.40;;;4.00;93.50;;;;;;5034693;28;20179;-85
2022/03/03 09:35:15;;;;;;;30.60;13.60;;;4.00;93.60;;;;;;5052994;28;20493;-85
2022/03/03 09:37:41;;;;;;;36.47;15.40;;;4.20;93.70;;;;;;5037424;28;20286;-85
2022/03/03 09:40:08;;;;;;;31.20;13.53;;;4.40;93.90;;;;;;5057052;28;20173;-86
2022/03/03 09:42:34;;;;;;;33.57;14.20;;;4.50;93.20;;;;;;5057618;28;20437;-84
2022/03/03 09:45:02;;;;;;;40.93;15.73;;;4.60;92.90;;;;;;5057842;28;20418;-86
2022/03/03 09:47:28;;;;;;;33.50;14.80;;;4.70;92.50;;;;;;5075793;28;20194;-85
2022/03/03 09:49:54;;;;;;;31.70;14.83;;;4.80;92.50;;;;;;5057977;28;20488;-85
2022/03/03 09:52:20;;;;;;;31.10;13.70;;;4.90;92.10;;;;;;5057646;28;20213;-86
2022/03/03 09:54:50;;;;;;;36.37;13.97;;;5.00;92.10;;;;;;5057949;28;20164;-85
2022/03/03 09:57:16;;;;;;;31.80;14.10;;;5.00;91.60;;;;;;5058474;28;20422;-86
2022/03/03 09:59:43;;;;;;;34.83;15.07;;;5.10;91.70;;;;;;5076304;28;20499;-85
2022/03/03 10:02:09;;;;;;;30.97;13.43;;;5.20;91.30;;;;;;5060083;28;20417;-86
2022/03/03 10:04:35;;;;;;;33.17;14.47;;;5.30;90.80;;;;;;5062789;28;20946;-86
2022/03/03 10:07:06;;;;;;;40.17;16.10;;;5.40;89.70;;;;;;5057080;28;20171;-85
2022/03/03 10:09:32;;;;;;;30.83;14.70;;;5.50;89.50;;;;;;5057304;28;20544;-86
2022/03/03 10:12:06;;;;;;;33.60;13.87;;;5.60;89.20;;;;;;5056936;28;20437;-86
2022/03/03 10:14:35;;;;;;;29.47;13.87;;;5.60;89.30;;;;;;5056653;28;20455;-86
2022/03/03 10:17:02;;;;;;;30.70;13.90;;;5.60;88.20;;;;;;5056269;28;20413;-86
2022/03/03 10:19:28;;;;;;;29.93;12.83;;;5.50;88.40;;;;;;5074614;28;20420;-86
2022/03/03 10:21:54;;;;;;;36.53;14.50;;;5.60;89.00;;;;;;5056320;28;20784;-87
2022/03/03 10:24:26;;;;;;;30.13;13.70;;;5.80;89.10;;;;;;5056397;28;20445;-86
2022/03/03 10:27:07;;;;;;;32.53;14.20;;;5.90;87.70;;;;;;5056284;28;20176;-86
2022/03/03 10:29:34;;;;;;;28.97;13.17;;;6.00;87.90;;;;;;5035341;28;20493;-86
2022/03/03 10:32:00;;;;;;;27.17;12.40;;;6.10;88.00;;;;;;5021327;28;20411;-86
2022/03/03 10:34:27;;;;;;;34.23;14.53;;;6.20;87.70;;;;;;5053664;28;20494;-86
2022/03/03 10:37:03;;;;;;;32.57;11.83;;;6.30;87.60;;;;;;5053914;28;20576;-86
2022/03/03 10:39:48;;;;;;;28.50;12.47;;;6.40;87.30;;;;;;5049667;28;20922;-86
2022/03/03 10:42:17;;;;;;;27.87;12.40;;;6.60;86.90;;;;;;5056432;28;20843;-85
2022/03/03 10:44:43;;;;;;;49.83;15.27;;;6.70;85.40;;;;;;5055786;28;20416;-85
2022/03/03 10:47:11;;;;;;;31.87;14.00;;;6.90;85.50;;;;;;5055305;28;21184;-86
2022/03/03 10:49:47;;;;;;;32.47;13.50;;;6.90;85.30;;;;;;5055999;28;20537;-85
2022/03/03 10:52:16;;;;;;;29.00;13.13;;;6.90;84.50;;;;;;5073241;28;20385;-85
2022/03/03 10:54:52;;;;;;;36.30;13.43;;;6.90;84.40;;;;;;5055122;28;20406;-86
2022/03/03 10:57:31;;;;;;;31.03;13.80;;;7.00;84.10;;;;;;5055494;28;20452;-86
2022/03/03 10:59:59;;;;;;;32.43;13.80;;;7.00;84.40;;;;;;5055556;28;20409;-86
2022/03/03 11:02:27;;;;;;;28.93;13.47;;;7.10;84.90;;;;;;5051933;28;20418;-86
2022/03/03 11:04:54;;;;;;;25.37;13.67;;;7.20;83.30;;;;;;5037436;28;20421;-86
2022/03/03 11:07:21;;;;;;;26.93;11.40;;;7.30;82.60;;;;;;5038751;28;20476;-86
2022/03/03 11:09:48;;;;;;;32.27;13.60;;;7.50;82.70;;;;;;5035418;28;20543;-86
2022/03/03 11:12:13;;;;;;;28.47;13.13;;;7.50;81.60;;;;;;5035480;28;20415;-86
2022/03/03 11:14:39;;;;;;;28.03;13.63;;;7.70;82.00;;;;;;5053237;28;20529;-85
2022/03/03 11:17:06;;;;;;;33.97;13.37;;;7.80;82.10;;;;;;5035241;28;20685;-85
2022/03/03 11:19:32;;;;;;;28.53;12.50;;;7.90;82.00;;;;;;5035395;28;20421;-85
2022/03/03 11:21:58;;;;;;;27.43;13.10;;;8.00;81.60;;;;;;5035346;28;20410;-85
2022/03/03 11:24:24;;;;;;;27.67;12.77;;;8.10;81.30;;;;;;5053175;28;20415;-85
2022/03/03 11:26:52;;;;;;;32.47;14.43;;;8.10;80.00;;;;;;5035860;28;20270;-84
2022/03/03 11:29:23;;;;;;;29.20;12.90;;;8.00;80.10;;;;;;5035636;28;20199;-85
2022/03/03 11:32:07;;;;;;;28.63;12.77;;;8.00;79.60;;;;;;5056591;28;20684;-84
2022/03/03 11:34:43;;;;;;;29.00;14.40;;;8.20;80.50;;;;;;5036155;28;20503;-85
2022/03/03 11:37:17;;;;;;;34.57;15.03;;;8.20;80.60;;;;;;5053594;28;20776;-84
2022/03/03 11:39:45;;;;;;;25.07;11.83;;;8.30;80.80;;;;;;5035422;28;20439;-84
2022/03/03 11:42:21;;;;;;;28.43;12.23;;;8.40;80.40;;;;;;5035411;28;20476;-84
2022/03/03 11:44:49;;;;;;;27.53;12.53;;;8.40;79.30;;;;;;5035043;28;20418;-84
2022/03/03 11:47:29;;;;;;;26.03;12.50;;;8.50;79.50;;;;;;5038151;28;20453;-85
2022/03/03 11:50:05;;;;;;;23.90;12.10;;;8.60;79.40;;;;;;5037079;28;20437;-85
2022/03/03 11:52:37;;;;;;;25.07;12.70;;;8.70;79.00;;;;;;5063299;28;20405;-85
2022/03/03 11:55:41;;;;;;;29.60;13.30;;;8.70;78.10;;;;;;5054782;28;20474;-85
2022/03/03 11:58:15;;;;;;;25.77;12.80;;;8.90;79.10;;;;;;5072650;28;20425;-86
2022/03/03 12:00:59;;;;;;;25.57;13.43;;;9.10;77.80;;;;;;5014786;28;20428;-86
2022/03/03 12:03:25;;;;;;;30.60;12.30;;;8.90;77.10;;;;;;5014426;28;20407;-84
2022/03/03 12:06:11;;;;;;;33.60;14.77;;;8.90;78.50;;;;;;5026424;28;20430;-85
2022/03/03 12:08:37;;;;;;;27.53;13.70;;;9.10;77.50;;;;;;5022291;28;20617;-85
2022/03/03 12:11:15;;;;;;;25.60;13.27;;;9.00;78.00;;;;;;5014506;28;20419;-85
2022/03/03 12:13:41;;;;;;;30.07;13.93;;;9.20;79.70;;;;;;5014457;28;20408;-85
2022/03/03 12:16:18;;;;;;;29.43;14.23;;;9.30;78.00;;;;;;5018759;28;20549;-85
2022/03/03 12:18:49;;;;;;;30.73;14.40;;;9.50;78.60;;;;;;5026276;28;20447;-84
2022/03/03 12:21:32;;;;;;;34.67;15.27;;;9.70;78.90;;;;;;5016125;28;20415;-84
2022/03/03 12:24:20;;;;;;;29.23;13.73;;;9.90;78.20;;;;;;5016507;28;20434;-83
2022/03/03 12:26:54;;;;;;;35.77;16.23;;;9.80;77.10;;;;;;5053280;28;20484;-83
2022/03/03 12:29:56;;;;;;;28.83;14.40;;;9.90;78.10;;;;;;5054176;28;20509;-85
2022/03/03 12:32:26;;;;;;;28.67;14.30;;;10.10;76.90;;;;;;5037900;28;20428;-84
2022/03/03 12:34:53;;;;;;;35.87;16.67;;;10.50;76.70;;;;;;5051989;28;20406;-84
2022/03/03 12:37:18;;;;;;;34.80;15.20;;;10.70;76.30;;;;;;5034255;28;20431;-85